createdAt,value
2019-06-07T00:02:18.827Z,3.90
2019-06-07T00:04:48.486Z,3.87
2019-06-07T00:07:21.772Z,4.07
2019-06-07T00:09:49.136Z,3.93
2019-06-07T00:12:21.616Z,3.40
2019-06-07T00:14:49.719Z,3.47
2019-06-07T00:17:20.237Z,4.30
2019-06-07T00:19:50.269Z,4.23
2019-06-07T00:22:32.247Z,3.80
2019-06-07T00:24:51.122Z,3.27
2019-06-07T00:27:22.450Z,4.00
2019-06-07T00:29:51.617Z,3.73
2019-06-07T00:32:22.101Z,3.37
2019-06-07T00:34:51.703Z,4.17
2019-06-07T00:37:25.168Z,4.37
2019-06-07T00:40:12.811Z,5.00
2019-06-07T00:42:24.211Z,4.60
2019-06-07T00:44:53.915Z,5.13
2019-06-07T00:47:25.548Z,5.20
2019-06-07T00:49:54.422Z,3.63
2019-06-07T00:53:11.462Z,3.83
2019-06-07T00:54:54.928Z,4.67
2019-06-07T00:57:24.569Z,4.70
2019-06-07T00:59:54.476Z,4.60
2019-06-07T01:02:28.235Z,4.63
2019-06-07T01:04:55.073Z,3.67
2019-06-07T01:07:24.635Z,4.30
2019-06-07T01:09:54.081Z,4.00
2019-06-07T01:12:26.257Z,4.40
2019-06-07T01:14:54.575Z,4.10
2019-06-07T01:17:41.709Z,4.20
2019-06-07T01:20:00.659Z,3.80
2019-06-07T01:22:30.021Z,3.77
2019-06-07T01:24:59.404Z,4.00
2019-06-07T01:27:28.928Z,3.90
2019-06-07T01:29:58.475Z,3.50
2019-06-07T01:32:31.517Z,4.17
2019-06-07T01:34:58.959Z,4.63
2019-06-07T01:37:30.158Z,5.33
2019-06-07T01:39:59.483Z,4.90
2019-06-07T01:42:30.545Z,4.83
2019-06-07T01:44:59.999Z,4.60
2019-06-07T01:47:32.161Z,4.10
2019-06-07T01:50:00.450Z,4.27
2019-06-07T01:52:29.890Z,4.20
2019-06-07T01:54:59.387Z,4.10
2019-06-07T01:57:44.731Z,4.47
2019-06-07T01:59:59.913Z,5.23
2019-06-07T02:02:31.641Z,5.27
2019-06-07T02:05:00.711Z,5.00
2019-06-07T02:07:32.816Z,4.97
2019-06-07T02:10:01.209Z,5.20
2019-06-07T02:12:40.213Z,4.80
2019-06-07T02:15:01.677Z,4.83
2019-06-07T02:17:33.272Z,5.77
2019-06-07T02:20:02.423Z,4.97
2019-06-07T02:22:32.618Z,4.97
2019-06-07T02:25:37.334Z,4.00
2019-06-07T02:27:33.150Z,4.40
2019-06-07T02:30:35.189Z,4.00
2019-06-07T02:32:36.680Z,4.50
2019-06-07T02:35:06.416Z,3.93
2019-06-07T02:37:37.262Z,4.10
2019-06-07T02:40:09.321Z,4.30
2019-06-07T02:42:42.789Z,4.20
2019-06-07T02:45:11.273Z,4.57
2019-06-07T02:47:42.034Z,4.47
2019-06-07T02:50:13.791Z,4.37
2019-06-07T02:52:43.197Z,4.60
2019-06-07T02:55:13.265Z,4.10
2019-06-07T02:57:43.303Z,3.90
2019-06-07T03:00:54.563Z,4.57
2019-06-07T03:03:04.227Z,4.23
2019-06-07T03:05:35.176Z,4.67
2019-06-07T03:08:05.317Z,4.50
2019-06-07T03:10:37.721Z,4.63
2019-06-07T03:13:11.846Z,4.33
2019-06-07T03:15:49.825Z,4.30
2019-06-07T03:18:29.080Z,4.30
2019-06-07T03:21:05.262Z,4.20
2019-06-07T03:23:33.589Z,4.13
2019-06-07T03:26:05.727Z,4.27
2019-06-07T03:28:37.559Z,3.87
2019-06-07T03:31:06.502Z,4.30
2019-06-07T03:33:41.550Z,5.30
2019-06-07T03:36:22.876Z,4.30
2019-06-07T03:38:39.943Z,4.70
2019-06-07T03:41:09.140Z,4.40
2019-06-07T03:43:40.590Z,4.70
2019-06-07T03:46:09.712Z,4.37
2019-06-07T03:48:41.390Z,4.40
2019-06-07T03:51:24.002Z,4.77
2019-06-07T03:53:41.404Z,5.53
2019-06-07T03:56:11.662Z,6.07
2019-06-07T03:58:49.623Z,6.33
2019-06-07T04:01:12.557Z,6.93
2019-06-07T04:03:50.716Z,6.40
2019-06-07T04:06:13.108Z,6.20
2019-06-07T04:08:42.497Z,6.93
2019-06-07T04:11:11.876Z,6.97
2019-06-07T04:13:42.636Z,6.80
2019-06-07T04:16:12.386Z,7.03
2019-06-07T04:18:42.493Z,8.20
2019-06-07T04:21:12.093Z,8.90
2019-06-07T04:23:45.588Z,8.23
2019-06-07T04:26:12.636Z,8.93
2019-06-07T04:29:31.114Z,8.63
2019-06-07T04:31:13.092Z,9.70
2019-06-07T04:33:43.833Z,9.20
2019-06-07T04:36:14.225Z,9.83
2019-06-07T04:38:45.224Z,9.13
2019-06-07T04:41:15.924Z,9.90
2019-06-07T04:43:46.796Z,9.23
2019-06-07T04:46:19.179Z,9.63
2019-06-07T04:48:51.592Z,9.50
2019-06-07T04:51:25.643Z,9.60
2019-06-07T04:53:55.134Z,10.30
2019-06-07T04:56:24.512Z,9.90
2019-06-07T04:58:53.893Z,10.33
2019-06-07T05:01:29.143Z,10.17
2019-06-07T05:03:54.481Z,10.67
2019-06-07T05:06:23.931Z,10.50
2019-06-07T05:08:53.279Z,10.00
2019-06-07T05:11:22.667Z,10.90
2019-06-07T05:13:52.142Z,9.87
2019-06-07T05:16:21.505Z,9.83
2019-06-07T05:18:50.890Z,10.17
2019-06-07T05:21:20.284Z,9.63
2019-06-07T05:24:06.817Z,10.50
2019-06-07T05:26:20.754Z,11.40
2019-06-07T05:28:50.140Z,10.20
2019-06-07T05:31:19.514Z,10.33
2019-06-07T05:33:48.898Z,9.27
2019-06-07T05:36:18.316Z,10.20
2019-06-07T05:38:47.696Z,10.17
2019-06-07T05:41:17.075Z,9.87
2019-06-07T05:44:01.837Z,10.03
2019-06-07T05:46:17.573Z,10.03
2019-06-07T05:48:46.960Z,9.07
2019-06-07T05:51:16.344Z,8.97
2019-06-07T05:53:46.248Z,9.10
2019-06-07T05:56:15.849Z,9.03
2019-06-07T05:58:45.501Z,9.03
2019-06-07T06:01:42.242Z,8.43
2019-06-07T06:03:48.295Z,8.70
2019-06-07T06:06:17.727Z,7.57
2019-06-07T06:08:47.910Z,7.87
2019-06-07T06:11:18.417Z,8.13
2019-06-07T06:14:04.930Z,7.67
2019-06-07T06:16:19.042Z,8.07
2019-06-07T06:18:49.206Z,7.43
2019-06-07T06:21:20.286Z,7.40
2019-06-07T06:23:51.899Z,7.57
2019-06-07T06:26:21.283Z,7.17
2019-06-07T06:28:50.699Z,7.53
2019-06-07T06:31:20.106Z,7.10
2019-06-07T06:33:50.135Z,6.67
2019-06-07T06:36:20.327Z,7.37
2019-06-07T06:38:51.572Z,7.97
2019-06-07T06:41:21.277Z,6.77
2019-06-07T06:43:52.495Z,7.70
2019-06-07T06:46:38.121Z,7.53
2019-06-07T06:48:55.117Z,7.27
2019-06-07T06:51:24.416Z,7.90
2019-06-07T06:53:53.965Z,7.30
2019-06-07T06:56:24.390Z,8.10
2019-06-07T06:59:33.937Z,7.17
2019-06-07T07:01:25.036Z,8.17
2019-06-07T07:04:11.603Z,7.67
2019-06-07T07:06:27.139Z,7.93
2019-06-07T07:08:58.532Z,7.90
2019-06-07T07:11:27.979Z,7.13
2019-06-07T07:13:57.444Z,7.60
2019-06-07T07:16:26.899Z,7.27
2019-06-07T07:18:56.321Z,6.63
2019-06-07T07:21:25.954Z,6.83
2019-06-07T07:24:19.432Z,6.70
2019-06-07T07:26:26.561Z,6.80
2019-06-07T07:28:57.818Z,6.50
2019-06-07T07:31:27.327Z,6.80
2019-06-07T07:34:28.365Z,6.77
2019-06-07T07:36:38.829Z,6.93
2019-06-07T07:39:04.500Z,5.83
2019-06-07T07:41:30.217Z,5.80
2019-06-07T07:44:06.189Z,6.47
2019-06-07T07:46:31.091Z,6.00
2019-06-07T07:49:00.600Z,6.27
2019-06-07T07:51:30.150Z,5.60
2019-06-07T07:54:10.082Z,5.63
2019-06-07T07:56:30.700Z,5.70
2019-06-07T07:59:02.024Z,5.57
2019-06-07T08:01:31.339Z,5.70
2019-06-07T08:04:00.782Z,5.43
2019-06-07T08:06:30.236Z,4.90
2019-06-07T08:08:59.652Z,5.13
2019-06-07T08:11:29.307Z,5.00
2019-06-07T08:13:58.935Z,5.10
2019-06-07T08:16:28.494Z,4.37
2019-06-07T08:19:03.474Z,4.47
2019-06-07T08:21:29.032Z,4.70
2019-06-07T08:24:03.598Z,4.40
2019-06-07T08:26:29.500Z,4.57
2019-06-07T08:29:02.462Z,4.53
2019-06-07T08:31:30.017Z,4.20
2019-06-07T08:34:00.831Z,3.60
2019-06-07T08:36:42.055Z,3.80
2019-06-07T08:39:07.305Z,4.00
2019-06-07T08:41:34.386Z,3.73
2019-06-07T08:44:22.275Z,3.67
2019-06-07T08:46:35.391Z,3.10
2019-06-07T08:49:05.023Z,3.30
2019-06-07T08:51:34.481Z,3.40
2019-06-07T08:54:21.741Z,3.43
2019-06-07T08:56:35.336Z,3.30
2019-06-07T08:59:11.036Z,3.42
2019-06-07T09:01:36.282Z,3.00
2019-06-07T09:04:09.886Z,3.30
2019-06-07T09:09:09.506Z,2.72
2019-06-07T09:11:38.901Z,2.45
2019-06-07T09:14:09.217Z,2.77
2019-06-07T09:16:38.914Z,2.70
2019-06-07T09:19:11.093Z,2.90
2019-06-07T09:21:39.424Z,2.80
2019-06-07T09:24:11.706Z,2.98
2019-06-07T09:26:40.022Z,2.77
2019-06-07T09:29:12.052Z,2.93
2019-06-07T09:31:52.680Z,2.40
2019-06-07T09:34:15.105Z,3.05
2019-06-07T09:36:43.886Z,2.67
2019-06-07T09:39:13.356Z,3.10
2019-06-07T09:41:49.372Z,3.47
2019-06-07T09:44:24.642Z,3.55
2019-06-07T09:46:46.300Z,3.17
2019-06-07T09:49:28.891Z,3.30
2019-06-07T09:51:47.012Z,3.33
2019-06-07T09:55:02.661Z,3.08
2019-06-07T09:56:47.486Z,3.40
2019-06-07T09:59:16.844Z,3.37
2019-06-07T10:01:46.299Z,3.47
2019-06-07T10:04:30.276Z,3.30
2019-06-07T10:06:46.825Z,3.20
2019-06-07T10:11:47.400Z,3.23
2019-06-07T10:14:16.801Z,3.12
2019-06-07T10:16:47.452Z,3.00
2019-06-07T10:19:17.368Z,3.30
2019-06-07T10:21:47.576Z,3.33
2019-06-07T10:24:17.064Z,3.12
2019-06-07T10:26:46.460Z,3.47
2019-06-07T10:29:15.827Z,3.37
2019-06-07T10:31:45.294Z,3.10
2019-06-07T10:34:14.695Z,3.62
2019-06-07T10:36:44.135Z,3.37
2019-06-07T10:39:13.548Z,2.85
2019-06-07T10:41:42.923Z,3.15
2019-06-07T10:44:12.304Z,2.50
2019-06-07T10:46:41.693Z,3.00
2019-06-07T10:49:12.186Z,2.90
2019-06-07T10:51:41.652Z,2.70
2019-06-07T10:54:24.641Z,2.70
2019-06-07T10:56:42.286Z,2.87
2019-06-07T10:59:11.986Z,2.90
2019-06-07T11:01:42.723Z,2.70
2019-06-07T11:04:12.115Z,2.33
2019-06-07T11:06:41.668Z,2.80
2019-06-07T11:09:12.052Z,2.25
2019-06-07T11:11:41.542Z,2.33
2019-06-07T11:14:10.922Z,2.50
2019-06-07T11:16:40.384Z,2.42
2019-06-07T11:19:13.890Z,2.45
2019-06-07T11:21:40.887Z,2.10
2019-06-07T11:24:10.280Z,2.42
2019-06-07T11:26:39.667Z,1.98
2019-06-07T11:29:10.732Z,2.22
2019-06-07T11:31:40.300Z,2.05
2019-06-07T11:34:10.473Z,2.40
2019-06-07T11:36:39.978Z,2.35
2019-06-07T11:39:11.060Z,2.60
2019-06-07T11:41:40.652Z,2.42
2019-06-07T11:44:10.965Z,2.12
2019-06-07T11:46:40.626Z,2.40
2019-06-07T11:49:10.847Z,2.62
2019-06-07T11:51:40.710Z,2.52
2019-06-07T11:54:11.771Z,2.27
2019-06-07T11:56:41.426Z,2.10
2019-06-07T11:59:11.213Z,2.33
2019-06-07T12:01:40.780Z,1.87
2019-06-07T12:04:11.481Z,2.45
2019-06-07T12:06:41.035Z,2.33
2019-06-07T12:09:10.738Z,2.20
2019-06-07T12:11:40.498Z,2.25
2019-06-07T12:14:10.939Z,2.05
2019-06-07T12:16:40.424Z,2.22
2019-06-07T12:19:11.654Z,2.30
2019-06-07T12:21:41.211Z,2.10
2019-06-07T12:24:12.089Z,2.40
2019-06-07T12:26:41.581Z,2.42
2019-06-07T12:29:11.051Z,2.27
2019-06-07T12:31:40.443Z,2.35
2019-06-07T12:34:11.191Z,2.30
2019-06-07T12:36:40.864Z,2.30
2019-06-07T12:39:10.361Z,2.52
2019-06-07T12:41:39.727Z,2.40
2019-06-07T12:44:09.293Z,2.10
2019-06-07T12:46:38.696Z,2.42
2019-06-07T12:49:08.293Z,2.25
2019-06-07T12:51:37.668Z,2.50
2019-06-07T12:54:07.052Z,2.47
2019-06-07T12:56:36.420Z,2.58
2019-06-07T12:59:05.943Z,2.58
2019-06-07T13:01:35.332Z,2.70
2019-06-07T13:04:04.934Z,2.75
2019-06-07T13:06:34.365Z,2.60
2019-06-07T13:09:04.285Z,2.50
2019-06-07T13:11:33.668Z,2.30
2019-06-07T13:14:03.228Z,2.62
2019-06-07T13:16:32.634Z,2.70
2019-06-07T13:19:02.268Z,2.60
2019-06-07T13:21:31.725Z,2.30
2019-06-07T13:24:01.326Z,2.20
2019-06-07T13:26:30.740Z,2.42
2019-06-07T13:29:00.112Z,2.35
2019-06-07T13:31:29.515Z,2.30
2019-06-07T13:33:58.878Z,2.30
2019-06-07T13:36:28.507Z,2.60
2019-06-07T13:38:57.971Z,2.10
2019-06-07T13:41:40.330Z,2.20
2019-06-07T13:43:58.519Z,2.17
2019-06-07T13:46:27.913Z,2.33
2019-06-07T13:48:57.399Z,2.10
2019-06-07T13:51:28.594Z,2.33
2019-06-07T13:53:57.942Z,2.00
2019-06-07T13:56:28.363Z,2.00
2019-06-07T13:58:57.802Z,2.00
2019-06-07T14:01:28.631Z,2.00
2019-06-07T14:03:58.362Z,2.27
2019-06-07T14:06:28.618Z,2.05
2019-06-07T14:08:59.003Z,2.27
2019-06-07T14:11:29.931Z,2.40
2019-06-07T14:13:59.599Z,1.80
2019-06-07T14:16:30.491Z,2.17
2019-06-07T14:18:59.951Z,1.87
2019-06-07T14:21:30.771Z,1.98
2019-06-07T14:24:00.356Z,2.02
2019-06-07T14:26:29.914Z,1.75
2019-06-07T14:28:59.291Z,2.15
2019-06-07T14:31:30.150Z,2.25
2019-06-07T14:33:59.630Z,1.85
2019-06-07T14:36:29.035Z,1.95
2019-06-07T14:38:58.501Z,2.10
2019-06-07T14:41:29.428Z,2.37
2019-06-07T14:43:58.961Z,1.90
2019-06-07T14:46:28.354Z,2.08
2019-06-07T14:48:57.740Z,2.30
2019-06-07T14:51:28.320Z,2.27
2019-06-07T14:53:57.775Z,2.20
2019-06-07T14:56:27.189Z,1.90
2019-06-07T14:58:56.585Z,2.27
2019-06-07T15:01:26.304Z,2.17
2019-06-07T15:03:55.826Z,2.00
2019-06-07T15:06:26.688Z,2.17
2019-06-07T15:08:56.269Z,2.25
2019-06-07T15:11:26.839Z,2.30
2019-06-07T15:13:56.444Z,2.25
2019-06-07T15:16:27.334Z,2.25
2019-06-07T15:18:56.853Z,2.45
2019-06-07T15:21:26.774Z,2.37
2019-06-07T15:23:56.375Z,2.40
2019-06-07T15:26:25.783Z,2.77
2019-06-07T15:28:55.202Z,2.92
2019-06-07T15:31:24.618Z,2.47
2019-06-07T15:33:54.041Z,2.75
2019-06-07T15:36:23.478Z,2.55
2019-06-07T15:38:52.861Z,2.55
2019-06-07T15:41:22.243Z,3.00
2019-06-07T15:43:51.629Z,3.05
2019-06-07T15:46:21.077Z,2.95
2019-06-07T15:48:50.454Z,3.00
2019-06-07T15:51:20.121Z,3.30
2019-06-07T15:53:49.535Z,3.50
2019-06-07T15:56:18.953Z,3.42
2019-06-07T15:58:48.303Z,3.25
2019-06-07T16:01:17.695Z,3.47
2019-06-07T16:03:47.115Z,3.00
2019-06-07T16:06:19.525Z,3.40
2019-06-07T16:08:47.788Z,3.70
2019-06-07T16:11:17.273Z,3.95
2019-06-07T16:13:46.657Z,3.52
2019-06-07T16:16:16.045Z,3.98
2019-06-07T16:18:45.445Z,3.77
2019-06-07T16:21:14.848Z,4.40
2019-06-07T16:23:44.245Z,3.87
2019-06-07T16:26:13.617Z,3.90
2019-06-07T16:28:43.034Z,4.08
2019-06-07T16:31:12.413Z,3.65
2019-06-07T16:33:43.055Z,4.03
2019-06-07T16:36:12.736Z,3.85
2019-06-07T16:38:42.403Z,4.20
2019-06-07T16:41:11.772Z,4.50
2019-06-07T16:43:42.562Z,4.42
2019-06-07T16:46:12.281Z,4.60
2019-06-07T16:48:42.873Z,4.72
2019-06-07T16:51:12.332Z,4.47
2019-06-07T16:53:42.360Z,4.58
2019-06-07T16:56:11.866Z,4.70
2019-06-07T16:58:42.326Z,5.17
2019-06-07T17:01:11.791Z,5.92
2019-06-07T17:03:41.485Z,6.35
2019-06-07T17:06:10.863Z,6.90
2019-06-07T17:08:42.173Z,6.17
2019-06-07T17:11:11.688Z,4.90
2019-06-07T17:13:42.250Z,4.75
2019-06-07T17:16:11.909Z,4.10
2019-06-07T17:18:41.265Z,4.53
2019-06-07T17:21:10.656Z,3.87
2019-06-07T17:23:41.216Z,2.97
2019-06-07T17:26:10.793Z,2.87
2019-06-07T17:28:41.642Z,1.80
2019-06-07T17:31:11.142Z,1.50
2019-06-07T17:33:41.877Z,1.70
2019-06-07T17:36:11.389Z,1.50
2019-06-07T17:38:40.774Z,1.50
2019-06-07T17:41:10.441Z,1.50
2019-06-07T17:43:49.443Z,1.23
2019-06-07T17:46:11.213Z,1.07
2019-06-07T17:48:41.427Z,1.17
2019-06-07T17:51:10.993Z,1.23
2019-06-07T17:53:41.861Z,0.87
2019-06-07T17:56:11.591Z,1.10
2019-06-07T17:58:42.197Z,1.10
2019-06-07T18:01:11.684Z,1.20
2019-06-07T18:03:41.062Z,1.00
2019-06-07T18:06:11.003Z,0.97
2019-06-07T18:08:43.342Z,0.80
2019-06-07T18:11:33.150Z,0.97
2019-06-07T18:14:25.785Z,0.90
2019-06-07T18:16:55.182Z,0.93
2019-06-07T18:19:24.669Z,0.70
2019-06-07T18:21:58.587Z,0.80
2019-06-07T18:24:25.235Z,0.80
2019-06-07T18:26:54.708Z,0.63
2019-06-07T18:29:24.178Z,0.70
2019-06-07T18:31:55.101Z,0.77
2019-06-07T18:34:24.858Z,0.63
2019-06-07T18:36:55.226Z,0.60
2019-06-07T18:39:24.728Z,0.57
2019-06-07T18:41:55.289Z,0.50
2019-06-07T18:44:24.912Z,0.57
2019-06-07T18:46:54.601Z,0.53
2019-06-07T18:49:24.087Z,0.50
2019-06-07T18:52:13.041Z,0.60
2019-06-07T18:54:42.600Z,0.60
2019-06-07T18:57:12.546Z,0.50
2019-06-07T18:59:42.110Z,0.40
2019-06-07T19:02:11.646Z,0.50
2019-06-07T19:04:41.008Z,0.40
2019-06-07T19:07:10.393Z,0.50
2019-06-07T19:09:39.864Z,0.37
2019-06-07T19:12:09.345Z,0.40
2019-06-07T19:14:38.781Z,0.40
2019-06-07T19:17:08.114Z,0.60
2019-06-07T19:19:37.508Z,0.40
2019-06-07T19:22:07.012Z,0.40
2019-06-07T19:24:36.406Z,0.50
2019-06-07T19:27:05.911Z,0.50
2019-06-07T19:29:35.327Z,0.50
2019-06-07T19:32:04.856Z,0.50
2019-06-07T19:34:34.247Z,0.43
2019-06-07T19:37:03.633Z,0.40
2019-06-07T19:39:33.038Z,0.60
2019-06-07T19:42:02.509Z,0.50
2019-06-07T19:44:31.909Z,0.60
2019-06-07T19:47:02.642Z,0.60
2019-06-07T19:49:32.171Z,0.80
2019-06-07T19:52:03.121Z,0.50
2019-06-07T19:54:32.618Z,0.50
2019-06-07T19:57:02.025Z,0.53
2019-06-07T19:59:31.405Z,0.70
2019-06-07T20:02:02.091Z,0.60
2019-06-07T20:04:31.693Z,0.47
2019-06-07T20:07:03.479Z,0.67
2019-06-07T20:09:32.273Z,0.57
2019-06-07T20:12:02.868Z,0.50
2019-06-07T20:14:32.322Z,0.57
2019-06-07T20:17:03.335Z,0.40
2019-06-07T20:19:33.127Z,0.47
2019-06-07T20:22:03.177Z,0.50
2019-06-07T20:24:32.792Z,0.57
2019-06-07T20:27:02.396Z,0.50
2019-06-07T20:29:31.818Z,0.60
2019-06-07T20:32:02.404Z,0.60
2019-06-07T20:34:31.957Z,0.50
2019-06-07T20:37:03.943Z,0.50
2019-06-07T20:39:32.484Z,0.50
2019-06-07T20:42:01.948Z,0.50
2019-06-07T20:44:31.412Z,0.50
2019-06-07T20:47:02.108Z,0.40
2019-06-07T20:49:31.623Z,0.50
2019-06-07T20:52:02.883Z,0.50
2019-06-07T20:54:32.162Z,0.67
2019-06-07T20:57:02.655Z,0.70
2019-06-07T20:59:32.103Z,0.47
2019-06-07T21:02:02.916Z,0.53
2019-06-07T21:04:32.579Z,0.70
2019-06-07T21:07:03.188Z,0.60
2019-06-07T21:09:32.718Z,0.50
2019-06-07T21:12:02.099Z,0.40
2019-06-07T21:14:31.486Z,0.40
2019-06-07T21:17:02.058Z,0.50
2019-06-07T21:19:31.652Z,0.40
2019-06-07T21:22:02.308Z,0.30
2019-06-07T21:24:31.782Z,0.60
2019-06-07T21:27:01.631Z,0.57
2019-06-07T21:29:31.537Z,0.47
2019-06-07T21:32:01.278Z,0.60
2019-06-07T21:34:30.831Z,0.60
2019-06-07T21:37:01.576Z,0.50
2019-06-07T21:39:31.171Z,0.50
2019-06-07T21:42:02.167Z,0.60
2019-06-07T21:44:31.724Z,0.70
2019-06-07T21:47:02.085Z,0.53
2019-06-07T21:49:31.495Z,0.50
2019-06-07T21:52:02.360Z,0.63
2019-06-07T21:54:32.087Z,0.53
2019-06-07T21:57:02.747Z,0.60
2019-06-07T21:59:32.249Z,0.50
2019-06-07T22:02:03.123Z,0.60
2019-06-07T22:04:32.695Z,0.60
2019-06-07T22:07:03.225Z,0.60
2019-06-07T22:09:32.811Z,0.60
2019-06-07T22:12:02.335Z,0.60
2019-06-07T22:14:31.782Z,0.50
2019-06-07T22:17:01.225Z,0.70
2019-06-07T22:19:30.770Z,0.70
2019-06-07T22:22:02.871Z,0.43
2019-06-07T22:24:31.271Z,0.57
2019-06-07T22:27:00.816Z,0.60
2019-06-07T22:29:30.361Z,0.60
2019-06-07T22:31:59.786Z,0.60
2019-06-07T22:34:29.160Z,0.40
2019-06-07T22:36:58.650Z,0.50
2019-06-07T22:39:28.150Z,0.60
2019-06-07T22:41:57.725Z,0.53
2019-06-07T22:44:27.692Z,0.70
2019-06-07T22:46:57.127Z,0.50
2019-06-07T22:49:26.583Z,0.70
2019-06-07T22:52:08.371Z,0.80
2019-06-07T22:54:27.137Z,0.50
2019-06-07T22:56:58.277Z,0.60
2019-06-07T22:59:27.763Z,0.60
2019-06-07T23:01:57.148Z,0.50
2019-06-07T23:04:26.752Z,0.50
2019-06-07T23:06:56.282Z,0.60
2019-06-07T23:09:25.684Z,0.50
2019-06-07T23:11:55.110Z,0.60
2019-06-07T23:14:25.747Z,0.63
2019-06-07T23:16:56.228Z,0.60
2019-06-07T23:19:25.869Z,0.80
2019-06-07T23:21:55.339Z,0.60
2019-06-07T23:24:24.804Z,0.60
2019-06-07T23:26:54.282Z,0.60
2019-06-07T23:29:23.651Z,0.67
2019-06-07T23:31:53.042Z,0.70
2019-06-07T23:34:22.415Z,0.60
2019-06-07T23:36:51.828Z,0.70
2019-06-07T23:39:22.483Z,0.63
2019-06-07T23:41:52.016Z,0.53
2019-06-07T23:44:21.559Z,0.80
2019-06-07T23:46:50.971Z,0.70
2019-06-07T23:49:22.427Z,0.80
2019-06-07T23:51:51.627Z,0.70
2019-06-07T23:54:22.146Z,0.77
2019-06-07T23:56:51.544Z,0.70
2019-06-07T23:59:22.295Z,0.60
